Darstellungsparameter: Aktuell verwendete Einstellungen:
Skalierung der Graphiken ... ?
xyx+y,   Skalierungsfaktor:      Skalierung: Modus: x, Faktor: 1
Darstellungszeitraum ... ?
Vom - - bis: - -   Zeitraum: 14.07.2019 - 14.07.2019
Min/Max/Avg-Anzeige ... ?
Zeige MMA aktuell
Zeige MMA Monat
Zeige MMA alles
Zeige --A aktuell
Zeige --A Monat
Zeige --A alles
Keine MMA-Anzeige
MMA:
Keine MMA-Graphiken
MMA-Basis: 14.07.2019 - 14.07.2019
Quicknavigation für Darstellung... ?
Tage:      1T, 2T, 3T, 5T -1T -2T -3T -5T +1T +2T +3T +5T
Wochen: 1W, 2W, 3W -1W -2W -3W +1W +2W +3W
Monate: 1M, 3M, 6M -1M -3M -6M +1M +3M +6M
Jahre:    1J, 3J, 5J, 10J -1J -3J -5J -10J +1J +3J +5J +10J
Nutze für die Darstellung ... ?
Originaldaten oder Mittelwerte auf ...
Stundenbasis Tagesbasis Wochenbasis
Monatsbasis Jahresbasis      Datenbasis: Original-Daten
Darstellen als:
Statistik (Auto) Statistik J:M      Darstellung:
Zur Graphik,    zurück zur Übersicht aller Sensoren.
 
Tabellarische Datenbersicht: ?
 
Sensor: Nr:Datum:Temp:Feuchte:Taupunkt:
Aussen-T/F 1 14-07-2019 00:00:00 16.9 C 90 % 15.25 C
2 14-07-2019 00:05:00 16.9 C 90 % 15.25 C
3 14-07-2019 00:10:00 16.9 C 90 % 15.25 C
4 14-07-2019 00:15:00 16.9 C 90 % 15.25 C
5 14-07-2019 00:20:00 16.9 C 89 % 15.08 C
6 14-07-2019 00:25:00 16.9 C 89 % 15.08 C
7 14-07-2019 00:30:00 17 C 90 % 15.35 C
8 14-07-2019 00:35:00 17 C 90 % 15.35 C
9 14-07-2019 00:40:00 17 C 90 % 15.35 C
10 14-07-2019 00:45:00 17 C 89 % 15.17 C
11 14-07-2019 00:50:00 17 C 90 % 15.35 C
12 14-07-2019 00:55:00 17 C 90 % 15.35 C
13 14-07-2019 01:00:00 16.9 C 90 % 15.25 C
14 14-07-2019 01:05:00 16.9 C 89 % 15.08 C
15 14-07-2019 01:10:00 16.9 C 89 % 15.08 C
16 14-07-2019 01:15:00 17 C 89 % 15.17 C
17 14-07-2019 01:20:00 17 C 89 % 15.17 C
18 14-07-2019 01:25:00 17 C 89 % 15.17 C
19 14-07-2019 01:30:00 17 C 88 % 15 C
20 14-07-2019 01:35:00 17.1 C 88 % 15.1 C
21 14-07-2019 01:40:00 17 C 88 % 15 C
22 14-07-2019 01:45:00 17 C 88 % 15 C
23 14-07-2019 01:50:00 17 C 88 % 15 C
24 14-07-2019 01:55:00 16.9 C 88 % 14.9 C
25 14-07-2019 02:00:00 16.9 C 88 % 14.9 C
Sensor: Nr:Datum:Temp:Feuchte:Taupunkt:
Aussen-T/F 26 14-07-2019 02:05:00 16.8 C 89 % 14.98 C
27 14-07-2019 02:10:00 16.7 C 89 % 14.88 C
28 14-07-2019 02:15:00 16.6 C 89 % 14.78 C
29 14-07-2019 02:20:00 16.5 C 89 % 14.68 C
30 14-07-2019 02:25:00 16.4 C 89 % 14.58 C
31 14-07-2019 02:30:00 16.3 C 90 % 14.66 C
32 14-07-2019 02:35:00 16.2 C 90 % 14.56 C
33 14-07-2019 02:40:00 16.1 C 90 % 14.46 C
34 14-07-2019 02:45:00 16.1 C 91 % 14.63 C
35 14-07-2019 02:50:00 15.9 C 91 % 14.43 C
36 14-07-2019 02:55:00 15.8 C 91 % 14.33 C
37 14-07-2019 03:00:00 15.8 C 91 % 14.33 C
38 14-07-2019 03:05:00 15.7 C 91 % 14.24 C
39 14-07-2019 03:10:00 15.7 C 91 % 14.24 C
40 14-07-2019 03:15:00 15.7 C 91 % 14.24 C
41 14-07-2019 03:20:00 15.5 C 91 % 14.04 C
42 14-07-2019 03:25:00 15.4 C 91 % 13.94 C
43 14-07-2019 03:30:00 15.3 C 90 % 13.67 C
44 14-07-2019 03:35:00 15.3 C 91 % 13.84 C
45 14-07-2019 03:40:00 15.3 C 91 % 13.84 C
46 14-07-2019 03:45:00 15.2 C 91 % 13.74 C
47 14-07-2019 03:50:00 15.2 C 91 % 13.74 C
48 14-07-2019 03:55:00 15.2 C 91 % 13.74 C
49 14-07-2019 04:00:00 15.2 C 91 % 13.74 C
50 14-07-2019 04:05:00 15.2 C 91 % 13.74 C
Sensor: Nr:Datum:Temp:Feuchte:Taupunkt:
Aussen-T/F 51 14-07-2019 04:10:00 15.1 C 91 % 13.64 C
52 14-07-2019 04:15:00 15.1 C 91 % 13.64 C
53 14-07-2019 04:20:00 15.1 C 91 % 13.64 C
54 14-07-2019 04:25:00 15.1 C 91 % 13.64 C
55 14-07-2019 04:30:00 15.1 C 91 % 13.64 C
56 14-07-2019 04:35:00 15.1 C 91 % 13.64 C
57 14-07-2019 04:40:00 15.1 C 91 % 13.64 C
58 14-07-2019 04:45:00 15.1 C 91 % 13.64 C
59 14-07-2019 04:50:00 15.1 C 90 % 13.47 C
60 14-07-2019 04:55:00 15.1 C 91 % 13.64 C
61 14-07-2019 05:00:00 15 C 90 % 13.37 C
62 14-07-2019 05:05:00 15 C 90 % 13.37 C
63 14-07-2019 05:10:00 14.9 C 90 % 13.28 C
64 14-07-2019 05:15:00 14.9 C 90 % 13.28 C
65 14-07-2019 05:20:00 14.9 C 90 % 13.28 C
66 14-07-2019 05:25:00 14.9 C 90 % 13.28 C
67 14-07-2019 05:30:00 14.8 C 90 % 13.18 C
68 14-07-2019 05:35:00 14.8 C 90 % 13.18 C
69 14-07-2019 05:40:00 14.8 C 90 % 13.18 C
70 14-07-2019 05:45:00 14.8 C 91 % 13.35 C
71 14-07-2019 05:50:00 14.7 C 91 % 13.25 C
72 14-07-2019 05:55:00 14.7 C 91 % 13.25 C
73 14-07-2019 06:00:00 14.7 C 91 % 13.25 C
74 14-07-2019 06:05:00 14.7 C 91 % 13.25 C
75 14-07-2019 06:10:00 14.7 C 91 % 13.25 C
Sensor: Nr:Datum:Temp:Feuchte:Taupunkt:
Aussen-T/F 76 14-07-2019 06:15:00 14.7 C 91 % 13.25 C
77 14-07-2019 06:20:00 14.7 C 91 % 13.25 C
78 14-07-2019 06:25:00 14.7 C 91 % 13.25 C
79 14-07-2019 06:30:00 14.7 C 91 % 13.25 C
80 14-07-2019 06:35:00 14.8 C 91 % 13.35 C
81 14-07-2019 06:40:00 14.8 C 91 % 13.35 C
82 14-07-2019 06:45:00 14.7 C 91 % 13.25 C
83 14-07-2019 06:50:00 14.7 C 91 % 13.25 C
84 14-07-2019 06:55:00 14.7 C 90 % 13.08 C
85 14-07-2019 07:00:00 14.7 C 88 % 12.73 C
86 14-07-2019 07:05:00 14.7 C 88 % 12.73 C
87 14-07-2019 07:10:00 14.7 C 88 % 12.73 C
88 14-07-2019 07:15:00 14.8 C 88 % 12.83 C
89 14-07-2019 07:20:00 14.8 C 88 % 12.83 C
90 14-07-2019 07:25:00 14.8 C 87 % 12.66 C
91 14-07-2019 07:30:00 14.9 C 87 % 12.76 C
92 14-07-2019 07:35:00 14.9 C 86 % 12.58 C
93 14-07-2019 07:40:00 14.9 C 85 % 12.4 C
94 14-07-2019 07:45:00 15 C 86 % 12.68 C
95 14-07-2019 07:50:00 15.1 C 86 % 12.78 C
96 14-07-2019 07:55:00 15.1 C 85 % 12.6 C
97 14-07-2019 08:00:00 15.2 C 85 % 12.7 C
98 14-07-2019 08:05:00 15.2 C 86 % 12.88 C
99 14-07-2019 08:10:00 15.3 C 85 % 12.79 C
100 14-07-2019 08:15:00 15.3 C 85 % 12.79 C
Sensor: Nr:Datum:Temp:Feuchte:Taupunkt:
Aussen-T/F 101 14-07-2019 08:20:00 15.4 C 86 % 13.07 C
102 14-07-2019 08:25:00 15.4 C 85 % 12.89 C
103 14-07-2019 08:30:00 15.4 C 85 % 12.89 C
104 14-07-2019 08:35:00 15.4 C 85 % 12.89 C
105 14-07-2019 08:40:00 15.5 C 85 % 12.99 C
106 14-07-2019 08:45:00 15.6 C 86 % 13.27 C
107 14-07-2019 08:50:00 15.6 C 86 % 13.27 C
108 14-07-2019 08:55:00 15.6 C 85 % 13.09 C
109 14-07-2019 09:00:00 15.6 C 85 % 13.09 C
110 14-07-2019 09:05:00 15.4 C 85 % 12.89 C
111 14-07-2019 09:10:00 15.3 C 85 % 12.79 C
112 14-07-2019 09:15:00 15.3 C 84 % 12.61 C
113 14-07-2019 09:20:00 15.2 C 84 % 12.52 C
114 14-07-2019 09:25:00 15.1 C 84 % 12.42 C
115 14-07-2019 09:30:00 15.1 C 84 % 12.42 C
116 14-07-2019 09:35:00 15.1 C 85 % 12.6 C
117 14-07-2019 09:40:00 15.2 C 84 % 12.52 C
118 14-07-2019 09:45:00 15.2 C 84 % 12.52 C
119 14-07-2019 09:50:00 15.3 C 83 % 12.43 C
120 14-07-2019 09:55:00 15.4 C 83 % 12.53 C
121 14-07-2019 10:00:00 15.6 C 82 % 12.54 C
122 14-07-2019 10:05:00 15.6 C 81 % 12.35 C
123 14-07-2019 10:10:00 15.8 C 80 % 12.36 C
124 14-07-2019 10:15:00 15.9 C 79 % 12.27 C
125 14-07-2019 10:20:00 15.9 C 77 % 11.88 C
Sensor: Nr:Datum:Temp:Feuchte:Taupunkt:
Aussen-T/F 126 14-07-2019 10:25:00 16 C 77 % 11.97 C
127 14-07-2019 10:30:00 16.1 C 77 % 12.07 C
128 14-07-2019 10:35:00 16.1 C 77 % 12.07 C
129 14-07-2019 10:40:00 16.2 C 76 % 11.97 C
130 14-07-2019 10:45:00 16.2 C 76 % 11.97 C
131 14-07-2019 10:50:00 16.3 C 76 % 12.07 C
132 14-07-2019 10:55:00 16.4 C 75 % 11.96 C
133 14-07-2019 11:00:00 16.4 C 75 % 11.96 C
134 14-07-2019 11:05:00 16.4 C 74 % 11.76 C
135 14-07-2019 11:10:00 16.6 C 74 % 11.95 C
136 14-07-2019 11:15:00 16.6 C 73 % 11.74 C
137 14-07-2019 11:20:00 16.6 C 74 % 11.95 C
138 14-07-2019 11:25:00 16.7 C 74 % 12.05 C
139 14-07-2019 11:30:00 16.8 C 73 % 11.94 C
140 14-07-2019 11:35:00 17.1 C 74 % 12.43 C
141 14-07-2019 11:40:00 17.2 C 72 % 12.11 C
142 14-07-2019 11:45:00 17.2 C 72 % 12.11 C
143 14-07-2019 11:50:00 17.2 C 72 % 12.11 C
144 14-07-2019 11:55:00 17.2 C 71 % 11.9 C
145 14-07-2019 12:00:00 17.2 C 71 % 11.9 C
146 14-07-2019 12:05:00 17.2 C 71 % 11.9 C
147 14-07-2019 12:10:00 17.3 C 70 % 11.78 C
148 14-07-2019 12:15:00 17.4 C 70 % 11.88 C
149 14-07-2019 12:20:00 17.5 C 70 % 11.97 C
150 14-07-2019 12:25:00 17.5 C 70 % 11.97 C
Sensor: Nr:Datum:Temp:Feuchte:Taupunkt:
Aussen-T/F 151 14-07-2019 12:30:00 17.6 C 70 % 12.07 C
152 14-07-2019 12:35:00 17.7 C 70 % 12.16 C
153 14-07-2019 12:40:00 17.7 C 68 % 11.72 C
154 14-07-2019 12:45:00 17.7 C 67 % 11.5 C
155 14-07-2019 12:50:00 17.8 C 68 % 11.82 C
156 14-07-2019 12:55:00 17.8 C 68 % 11.82 C
157 14-07-2019 13:00:00 17.8 C 68 % 11.82 C
158 14-07-2019 13:05:00 17.7 C 67 % 11.5 C
159 14-07-2019 13:10:00 17.7 C 67 % 11.5 C
160 14-07-2019 13:15:00 17.7 C 67 % 11.5 C
161 14-07-2019 13:20:00 17.7 C 67 % 11.5 C
162 14-07-2019 13:25:00 17.7 C 67 % 11.5 C
163 14-07-2019 13:30:00 17.7 C 66 % 11.27 C
164 14-07-2019 13:35:00 17.8 C 67 % 11.6 C
165 14-07-2019 13:40:00 17.9 C 67 % 11.69 C
166 14-07-2019 13:45:00 17.9 C 66 % 11.46 C
167 14-07-2019 13:50:00 18 C 67 % 11.79 C
168 14-07-2019 13:55:00 18.1 C 66 % 11.65 C
169 14-07-2019 14:00:00 18.2 C 66 % 11.75 C
170 14-07-2019 14:05:00 18.1 C 65 % 11.42 C
171 14-07-2019 14:10:00 18.1 C 64 % 11.19 C
172 14-07-2019 14:15:00 18 C 65 % 11.33 C
173 14-07-2019 14:20:00 18 C 65 % 11.33 C
174 14-07-2019 14:25:00 18.2 C 65 % 11.52 C
175 14-07-2019 14:30:00 18.2 C 64 % 11.28 C
Sensor: Nr:Datum:Temp:Feuchte:Taupunkt:
Aussen-T/F 176 14-07-2019 14:35:00 18.2 C 64 % 11.28 C
177 14-07-2019 14:40:00 18.3 C 64 % 11.38 C
178 14-07-2019 14:45:00 18.3 C 63 % 11.14 C
179 14-07-2019 14:50:00 18.3 C 63 % 11.14 C
180 14-07-2019 14:55:00 18.4 C 64 % 11.47 C
181 14-07-2019 15:00:00 18.5 C 63 % 11.33 C
182 14-07-2019 15:05:00 18.6 C 62 % 11.18 C
183 14-07-2019 15:10:00 18.5 C 63 % 11.33 C
184 14-07-2019 15:15:00 18.6 C 63 % 11.42 C
185 14-07-2019 15:20:00 18.7 C 61 % 11.03 C
186 14-07-2019 15:25:00 18.9 C 61 % 11.22 C
187 14-07-2019 15:30:00 19 C 60 % 11.07 C
188 14-07-2019 15:35:00 19 C 61 % 11.31 C
189 14-07-2019 15:40:00 19 C 60 % 11.07 C
190 14-07-2019 15:45:00 19.2 C 60 % 11.25 C
191 14-07-2019 15:50:00 19.4 C 61 % 11.69 C
192 14-07-2019 15:55:00 19.7 C 58 % 11.21 C
193 14-07-2019 16:00:00 19.5 C 59 % 11.28 C
194 14-07-2019 16:05:00 19.2 C 59 % 11 C
195 14-07-2019 16:10:00 19.2 C 59 % 11 C
196 14-07-2019 16:15:00 19.2 C 59 % 11 C
197 14-07-2019 16:20:00 19.2 C 60 % 11.25 C
198 14-07-2019 16:25:00 19.4 C 58 % 10.93 C
199 14-07-2019 16:30:00 19.3 C 58 % 10.84 C
200 14-07-2019 16:35:00 19.4 C 58 % 10.93 C
Sensor: Nr:Datum:Temp:Feuchte:Taupunkt:
Aussen-T/F 201 14-07-2019 16:40:00 19.4 C 59 % 11.19 C
202 14-07-2019 16:45:00 19.4 C 59 % 11.19 C
203 14-07-2019 16:50:00 19.4 C 59 % 11.19 C
204 14-07-2019 16:55:00 19.4 C 59 % 11.19 C
205 14-07-2019 17:00:00 19.5 C 59 % 11.28 C
206 14-07-2019 17:05:00 19.7 C 59 % 11.47 C
207 14-07-2019 17:10:00 19.6 C 57 % 10.86 C
208 14-07-2019 17:15:00 19.4 C 58 % 10.93 C
209 14-07-2019 17:20:00 19.4 C 59 % 11.19 C
210 14-07-2019 17:25:00 19.3 C 59 % 11.09 C
211 14-07-2019 17:30:00 19.3 C 58 % 10.84 C
212 14-07-2019 17:35:00 19.2 C 59 % 11 C
213 14-07-2019 17:40:00 19.2 C 60 % 11.25 C
214 14-07-2019 17:45:00 19.2 C 58 % 10.74 C
215 14-07-2019 17:50:00 19.2 C 58 % 10.74 C
216 14-07-2019 17:55:00 19.1 C 59 % 10.91 C
217 14-07-2019 18:00:00 19.1 C 59 % 10.91 C
218 14-07-2019 18:05:00 19 C 61 % 11.31 C
219 14-07-2019 18:10:00 18.8 C 61 % 11.13 C
220 14-07-2019 18:15:00 18.7 C 63 % 11.52 C
221 14-07-2019 18:20:00 18.6 C 63 % 11.42 C
222 14-07-2019 18:25:00 18.6 C 62 % 11.18 C
223 14-07-2019 18:30:00 18.6 C 63 % 11.42 C
224 14-07-2019 18:35:00 18.6 C 61 % 10.94 C
225 14-07-2019 18:40:00 18.5 C 62 % 11.09 C
Sensor: Nr:Datum:Temp:Feuchte:Taupunkt:
Aussen-T/F 226 14-07-2019 18:45:00 18.5 C 61 % 10.84 C
227 14-07-2019 18:50:00 18.4 C 63 % 11.23 C
228 14-07-2019 18:55:00 18.5 C 63 % 11.33 C
229 14-07-2019 19:00:00 18.4 C 63 % 11.23 C
230 14-07-2019 19:05:00 18.5 C 61 % 10.84 C
231 14-07-2019 19:10:00 18.4 C 61 % 10.75 C
232 14-07-2019 19:15:00 18.4 C 60 % 10.5 C
233 14-07-2019 19:20:00 18.4 C 61 % 10.75 C
234 14-07-2019 19:25:00 18.4 C 61 % 10.75 C
235 14-07-2019 19:30:00 18.4 C 62 % 10.99 C
236 14-07-2019 19:35:00 18.4 C 62 % 10.99 C
237 14-07-2019 19:40:00 18.3 C 63 % 11.14 C
238 14-07-2019 19:45:00 18.3 C 63 % 11.14 C
239 14-07-2019 19:50:00 18.3 C 63 % 11.14 C
240 14-07-2019 19:55:00 18.2 C 64 % 11.28 C
241 14-07-2019 20:00:00 18.2 C 65 % 11.52 C
242 14-07-2019 20:05:00 18.1 C 65 % 11.42 C
243 14-07-2019 20:10:00 18.1 C 65 % 11.42 C
244 14-07-2019 20:15:00 18 C 65 % 11.33 C
245 14-07-2019 20:20:00 17.9 C 66 % 11.46 C
246 14-07-2019 20:25:00 17.9 C 65 % 11.23 C
247 14-07-2019 20:30:00 17.8 C 66 % 11.37 C
248 14-07-2019 20:35:00 17.8 C 67 % 11.6 C
249 14-07-2019 20:40:00 17.8 C 67 % 11.6 C
250 14-07-2019 20:45:00 17.7 C 67 % 11.5 C
Sensor: Nr:Datum:Temp:Feuchte:Taupunkt:
Aussen-T/F 251 14-07-2019 20:50:00 17.7 C 67 % 11.5 C
252 14-07-2019 20:55:00 17.7 C 67 % 11.5 C
253 14-07-2019 21:00:00 17.6 C 67 % 11.4 C
254 14-07-2019 21:05:00 17.6 C 67 % 11.4 C
255 14-07-2019 21:10:00 17.6 C 67 % 11.4 C
256 14-07-2019 21:15:00 17.5 C 66 % 11.08 C
257 14-07-2019 21:20:00 17.5 C 67 % 11.31 C
258 14-07-2019 21:25:00 17.5 C 67 % 11.31 C
259 14-07-2019 21:30:00 17.4 C 68 % 11.44 C
260 14-07-2019 21:35:00 17.4 C 68 % 11.44 C
261 14-07-2019 21:40:00 17.4 C 68 % 11.44 C
262 14-07-2019 21:45:00 17.3 C 68 % 11.34 C
263 14-07-2019 21:50:00 17.3 C 68 % 11.34 C
264 14-07-2019 21:55:00 17.3 C 68 % 11.34 C
265 14-07-2019 22:00:00 17.2 C 69 % 11.47 C
266 14-07-2019 22:05:00 17.2 C 71 % 11.9 C
267 14-07-2019 22:10:00 17.2 C 68 % 11.25 C
268 14-07-2019 22:15:00 17.1 C 67 % 10.93 C
269 14-07-2019 22:20:00 17.1 C 67 % 10.93 C
270 14-07-2019 22:25:00 17.1 C 68 % 11.15 C
271 14-07-2019 22:30:00 17.1 C 67 % 10.93 C
272 14-07-2019 22:35:00 17.2 C 67 % 11.02 C
273 14-07-2019 22:40:00 17.1 C 67 % 10.93 C
274 14-07-2019 22:45:00 17.1 C 68 % 11.15 C
275 14-07-2019 22:50:00 17.1 C 69 % 11.37 C
Sensor: Nr:Datum:Temp:Feuchte:Taupunkt:
Aussen-T/F 276 14-07-2019 22:55:00 17 C 69 % 11.28 C
277 14-07-2019 23:00:00 16.9 C 69 % 11.18 C
278 14-07-2019 23:05:00 16.9 C 69 % 11.18 C
279 14-07-2019 23:10:00 16.9 C 70 % 11.4 C
280 14-07-2019 23:15:00 16.8 C 70 % 11.3 C
281 14-07-2019 23:20:00 16.8 C 69 % 11.09 C
282 14-07-2019 23:25:00 16.8 C 70 % 11.3 C
283 14-07-2019 23:30:00 16.8 C 70 % 11.3 C
284 14-07-2019 23:35:00 16.8 C 71 % 11.52 C
285 14-07-2019 23:40:00 16.8 C 73 % 11.94 C
286 14-07-2019 23:45:00 16.8 C 74 % 12.14 C
287 14-07-2019 23:50:00 16.7 C 74 % 12.05 C
288 14-07-2019 23:55:00 16.6 C 74 % 11.95 C

Legende:
   Min
   Max


Maximal/Minimal-Werte vom 14.07.2019 - 14.07.2019

Sensor Min Max Avg
Temp
(Aussen-T/F)
14.7 °C
14-07-2019  05:50:00
19.7 °C
14-07-2019  15:55:00
16.93 °C
Feuchte
(Aussen-T/F)
57 %
14-07-2019  17:10:00
91 %
14-07-2019  02:45:00
75.57 %
Taupunkt
(Aussen-T/F)
10.5 C
14-07-2019  19:15:00
15.35 C
14-07-2019  00:30:00
12.35 C

Die Daten stammen von einer Davis Vantage Pro 2 Wetter-Station und werden unter Linux mit der Software wview2wettercgi und aufbereitet. Alle Angaben erfolgen ohne Gewähr für ihre Vollständigkeit oder Richtigkeit.
Kontakt: Rainer Krienke krienke@uni-koblenz.de . Meine Webseiten an der Uni Koblenz oder privat.
Version: $Revision: 0.78 $